Airfield :
LOGIN :

Register | Disclaimer

   EN    FR    IT 

 










Legend :    VFR   Marginal VFR   IFR   Intensive IFR   Very Intensive IFR
Visi :
Ceiling :
>= 8 km
>= 3000ft
5 to 8 km
1000 to 3000 ft
1500m to 5 km
500 to 1000 ft
800 to 1500m
200 to 500 ft
< 800m
< 200 ft
Symbols :   Thunderstorms  Fog  Heavy snow  Heavy precipitations  Wind > 20 kt
SIGMETs :     Misc.  Thunderstorms  Icing  Turbulence  Mountain Waves  Volcanic Ashes






- Airport Elevation : 1079 ft


ETIK - Illesheim Air Base

CURRENT METAR :
  • 050056Z AUTO 00000KT 9999 FEW037 OVC070 14/13 A2990 RMK AO2 SLP121 T01420127 $

EXPIRED METARs :
  • 042356Z AUTO 19003KT 9999 BKN060 BKN075 OVC140 14/12 A2992 RMK AO2 SLP128 60000 T01400124 10181 20140 50001 $
  • 042256Z AUTO 00000KT 9999 OVC075 15/13 A2992 RMK AO2 SLP128 T01480128 401990137 $

TAF TAF ETIK
Valid from the 04 at 22:00 until the 06 at 04:00 UTC


042200Z 0422/0604 VRB06KT 5000 -SHRA BKN015 OVC030 QNH2989INS
BECMG 0502/0503 VRB06KT 5000 -SHRA BKN006 OVC014 QNH2983INS
BECMG 0510/0511 VRB06KT 5000 -TSRA BKN015CB OVC030 QNH2980INS
BECMG 0516/0517 VRB06KT 9999 NSW BKN030 OVC040 QNH2980INS TX21/0514Z TN13/0501Z



MET'MAP, your aeronautical weather chart ! - Copyright ORBIFLY December 2007 - Disclaimer

ORBIFLY MET'MAP TEAM :

Programming & Development : Alexandra Zaïnal
Concept & original design : Baudouin d'Aumeries
Assistance for programming : Marc-Olivier Méhu
Technical & hardware support : Manuel Goepfert

Contact : metmap@orbifly.com




SOURCES & CREDITS :

   NOAA